createdAt,value
2019-03-18T00:05:55.721Z,79.3
2019-03-18T00:16:30.644Z,78.8
2019-03-18T00:27:26.550Z,79.9
2019-03-18T00:37:59.234Z,79.8
2019-03-18T00:48:17.832Z,80.0
2019-03-18T00:59:07.206Z,80.9
2019-03-18T01:09:26.960Z,80.6
2019-03-18T01:20:20.542Z,81.0
2019-03-18T01:31:15.365Z,81.5
2019-03-18T01:41:42.989Z,82.0
2019-03-18T01:52:31.889Z,83.0
2019-03-18T02:02:51.683Z,81.5
2019-03-18T02:13:42.724Z,82.1
2019-03-18T02:24:18.349Z,83.5
2019-03-18T02:34:34.606Z,83.4
2019-03-18T02:44:52.039Z,83.7
2019-03-18T02:55:07.863Z,83.8
2019-03-18T03:06:10.220Z,83.5
2019-03-18T03:17:12.459Z,83.3
2019-03-18T03:28:05.515Z,83.2
2019-03-18T03:38:22.490Z,83.3
2019-03-18T03:50:15.898Z,83.9
2019-03-18T04:01:13.402Z,83.3
2019-03-18T04:11:59.715Z,83.5
2019-03-18T04:22:47.530Z,83.4
2019-03-18T04:33:02.256Z,83.8
2019-03-18T04:43:16.415Z,84.1
2019-03-18T04:54:24.297Z,84.4
2019-03-18T05:05:24.522Z,83.6
2019-03-18T05:15:38.665Z,83.6
2019-03-18T05:26:31.209Z,83.6
2019-03-18T05:36:53.412Z,84.1
2019-03-18T05:47:48.573Z,83.8
2019-03-18T05:58:35.732Z,83.8
2019-03-18T06:09:28.588Z,83.2
2019-03-18T06:19:47.011Z,83.4
2019-03-18T06:30:39.503Z,84.1
2019-03-18T06:41:25.304Z,84.3
2019-03-18T06:52:14.648Z,84.8
2019-03-18T07:03:03.014Z,84.7
2019-03-18T07:13:53.385Z,84.4
2019-03-18T07:24:38.686Z,84.2
2019-03-18T07:34:53.814Z,84.4
2019-03-18T07:45:11.220Z,85.1
2019-03-18T07:56:01.127Z,86.4
2019-03-18T08:06:57.147Z,83.8
2019-03-18T08:17:15.697Z,82.0
2019-03-18T08:28:08.680Z,82.2
2019-03-18T08:38:24.648Z,80.2
2019-03-18T08:49:11.920Z,75.1
2019-03-18T08:59:58.574Z,73.7
2019-03-18T09:10:12.129Z,70.6
2019-03-18T09:20:23.266Z,70.7
2019-03-18T09:30:38.175Z,70.6
2019-03-18T09:41:47.856Z,67.4
2019-03-18T09:52:35.814Z,60.5
2019-03-18T10:02:49.993Z,56.7
2019-03-18T10:13:08.056Z,57.3
2019-03-18T10:23:25.765Z,57.3
2019-03-18T10:34:14.424Z,57.9
2019-03-18T10:45:20.096Z,61.1
2019-03-18T10:56:23.263Z,62.5
2019-03-18T11:06:45.010Z,64.4
2019-03-18T11:17:03.281Z,65.3
2019-03-18T11:27:30.183Z,66.5
2019-03-18T11:37:49.923Z,67.2
2019-03-18T11:48:07.106Z,69.8
2019-03-18T11:58:59.660Z,71.0
2019-03-18T12:09:47.890Z,66.1
2019-03-18T12:20:50.999Z,64.5
2019-03-18T12:31:44.538Z,64.9
2019-03-18T12:42:34.881Z,64.9
2019-03-18T12:53:37.205Z,65.4
2019-03-18T13:04:37.967Z,64.5
2019-03-18T13:15:06.839Z,64.3
2019-03-18T13:25:27.118Z,65.3
2019-03-18T13:36:18.311Z,67.1
2019-03-18T13:46:35.952Z,66.9
2019-03-18T13:57:26.009Z,66.9
2019-03-18T14:08:28.701Z,68.2
2019-03-18T14:19:17.298Z,69.3
2019-03-18T14:30:14.987Z,70.0
2019-03-18T14:41:03.960Z,69.5
2019-03-18T14:51:57.859Z,69.5
2019-03-18T15:02:16.336Z,68.7
2019-03-18T15:13:11.172Z,68.4
2019-03-18T15:24:19.097Z,67.8
2019-03-18T15:34:35.864Z,68.2
2019-03-18T15:44:57.853Z,67.8
2019-03-18T15:55:12.877Z,67.4
2019-03-18T16:06:01.032Z,67.3
2019-03-18T16:17:01.202Z,67.4
2019-03-18T16:27:39.882Z,67.5
2019-03-18T16:37:54.557Z,66.6
2019-03-18T16:48:53.074Z,66.4
2019-03-18T16:59:48.426Z,67.2
2019-03-18T17:10:48.462Z,67.8
2019-03-18T17:21:44.386Z,68.2
2019-03-18T17:32:49.710Z,68.7
2019-03-18T17:43:06.847Z,68.6
2019-03-18T17:53:31.317Z,68.8
2019-03-18T18:04:22.404Z,69.4
2019-03-18T18:14:37.070Z,69.2
2019-03-18T18:25:25.598Z,69.5
2019-03-18T18:36:18.233Z,69.5
2019-03-18T18:46:46.264Z,69.6
2019-03-18T18:57:36.576Z,70.0
2019-03-18T19:08:26.541Z,70.1
2019-03-18T19:20:37.393Z,70.3
2019-03-18T19:31:58.366Z,70.1
2019-03-18T19:42:33.419Z,70.1
2019-03-18T19:53:48.682Z,70.5
2019-03-18T20:04:10.986Z,70.7
2019-03-18T20:16:10.699Z,70.6
2019-03-18T20:27:30.117Z,70.6
2019-03-18T20:38:50.880Z,70.6
2019-03-18T20:50:39.507Z,70.7
2019-03-18T21:01:24.506Z,70.7
2019-03-18T21:12:02.535Z,70.9
2019-03-18T21:23:11.765Z,70.7
2019-03-18T21:34:17.374Z,70.9
2019-03-18T21:44:31.539Z,71.3
2019-03-18T21:54:45.515Z,71.2
2019-03-18T22:05:47.091Z,71.3
2019-03-18T22:16:31.647Z,71.7
2019-03-18T22:26:59.831Z,71.6
2019-03-18T22:37:33.025Z,71.3
2019-03-18T22:47:47.043Z,71.5
2019-03-18T22:58:31.872Z,71.9
2019-03-18T23:08:57.438Z,71.6
2019-03-18T23:19:11.787Z,72.1
2019-03-18T23:29:57.384Z,72.0
2019-03-18T23:40:28.432Z,72.0
2019-03-18T23:50:42.012Z,72.3
